»·PEaware :: N567DD KSNA-KAVX

N567DD :: KSNA-KAVX

FLIGHT INFORMATION

Flight Status: Arrived
Operator: Privately registered:
United States
More flights under this callsign
Pilot: Jordan V. (27588)
Aircraft: CESSNA 172 SKYHAWK
(C172)
More flights by this aircraft type
Origin: KSNA John Wayne-Orange Co
United States
Destination: KAVX Catalina
United States
More flights between these airports :: More routes between these airports
Route: SLI V21 SXC
File this flight plan on PilotEdge
Remarks: I-7 Rating
Altitude:
(Current/Filed)
4,000ft
Speed:
(Current/Filed)
110kts
Departed: 08-Feb-20 11:41 AM
Arrived: 08-Feb-20 12:11 PM
Distance/Time
Traveled:
32nm/0:30
Distance/Time
To Go:
Arrived

Flight Plot

Page will automatically refresh every two minutes.


Map Options




Map Legend


Flown Route
Filed Route
Departure Airport
Arrival Airport
Navaid (VOR, NDB)
Fix

Horizontal Profiles

Position Reports

Time Latitude Longitude Heading Altitude Ground
Speed
08-Feb-20 11:22 33.675753 -117.871532 220 59ft 0kts
08-Feb-20 11:23 33.675753 -117.871532 220 59ft 0kts
08-Feb-20 11:24 33.675753 -117.871532 220 59ft 0kts
08-Feb-20 11:25 33.675753 -117.871532 220 59ft 0kts
08-Feb-20 11:26 33.675753 -117.871532 220 59ft 0kts
08-Feb-20 11:27 33.675753 -117.871532 220 59ft 0kts
08-Feb-20 11:29 33.675753 -117.871532 220 59ft 0kts
08-Feb-20 11:30 33.675753 -117.871532 220 59ft 0kts
08-Feb-20 11:31 33.675753 -117.871532 220 59ft 0kts
08-Feb-20 11:32 33.675753 -117.871532 220 59ft 0kts
08-Feb-20 11:33 33.675753 -117.871532 220 59ft 0kts
08-Feb-20 11:34 33.675753 -117.871532 220 59ft 0kts
08-Feb-20 11:35 33.675753 -117.871532 220 59ft 0kts
08-Feb-20 11:36 33.675192 -117.870734 78 59ft 9kts
08-Feb-20 11:37 33.680510 -117.867447 27 59ft 24kts
08-Feb-20 11:38 33.681189 -117.866383 118 59ft 0kts
08-Feb-20 11:39 33.681189 -117.866383 118 59ft 0kts
08-Feb-20 11:40 33.679471 -117.864574 205 59ft 29kts
08-Feb-20 11:41 33.664157 -117.880702 231 817ft 87kts
08-Feb-20 11:42 33.647687 -117.904819 231 1738ft 98kts
08-Feb-20 11:43 33.630102 -117.930180 231 2639ft 99kts
08-Feb-20 11:44 33.612455 -117.955206 231 3535ft 97kts
08-Feb-20 11:45 33.593826 -117.981291 231 4016ft 116kts
08-Feb-20 11:46 33.572999 -118.010478 231 4012ft 113kts
08-Feb-20 11:46 33.558169 -118.035858 243 4012ft 111kts
08-Feb-20 11:48 33.540443 -118.073724 242 4012ft 111kts
08-Feb-20 11:49 33.525150 -118.106028 242 4013ft 111kts
08-Feb-20 11:49 33.512356 -118.133004 242 3997ft 112kts
08-Feb-20 11:50 33.496986 -118.165357 242 3997ft 111kts
08-Feb-20 11:52 33.479202 -118.202744 242 3998ft 110kts
08-Feb-20 11:52 33.466499 -118.229421 242 3999ft 110kts
08-Feb-20 11:53 33.451258 -118.261400 242 3999ft 110kts
08-Feb-20 11:55 33.433408 -118.298809 241 3999ft 110kts
08-Feb-20 11:55 33.420684 -118.325443 241 3999ft 110kts
08-Feb-20 11:56 33.405388 -118.357432 241 3999ft 110kts
08-Feb-20 11:57 33.390097 -118.389390 241 3999ft 110kts
08-Feb-20 11:58 33.374672 -118.421220 241 3999ft 110kts
08-Feb-20 11:59 33.389043 -118.438845 12 4002ft 107kts
08-Feb-20 12:00 33.412556 -118.419584 53 4000ft 109kts
08-Feb-20 12:01 33.439184 -118.408187 5 4000ft 107kts
08-Feb-20 12:02 33.469180 -118.404213 6 3831ft 110kts
08-Feb-20 12:03 33.497129 -118.406680 319 3403ft 104kts
08-Feb-20 12:04 33.519944 -118.428704 349 3399ft 107kts
08-Feb-20 12:05 33.523546 -118.403712 139 3402ft 113kts
08-Feb-20 12:06 33.494729 -118.399570 194 3400ft 112kts
08-Feb-20 12:07 33.465838 -118.406845 189 3397ft 101kts
08-Feb-20 12:08 33.438132 -118.412184 196 3046ft 103kts
08-Feb-20 12:09 33.417701 -118.398443 204 2220ft 76kts
08-Feb-20 12:10 33.405332 -118.415176 208 1542ft 20kts
08-Feb-20 12:11 33.403815 -118.415354 153 1546ft 0kts
08-Feb-20 12:12 33.403815 -118.415354 153 1546ft 0kts
08-Feb-20 12:13 33.403815 -118.415354 153 1546ft 0kts
08-Feb-20 12:14 33.403815 -118.415354 153 1546ft 0kts
08-Feb-20 12:15 33.403815 -118.415354 153 1546ft 0kts
08-Feb-20 12:16 33.403815 -118.415354 153 1546ft 0kts
08-Feb-20 12:17 33.403815 -118.415354 153 1546ft 0kts
08-Feb-20 12:18 33.403815 -118.415354 153 1546ft 0kts
08-Feb-20 12:19 33.403815 -118.415354 153 1546ft 0kts
08-Feb-20 12:20 33.403815 -118.415354 153 1546ft 0kts
08-Feb-20 12:21 33.403815 -118.415354 153 1546ft 0kts
08-Feb-20 12:22 33.403815 -118.415354 153 1546ft 0kts
08-Feb-20 12:23 33.403815 -118.415354 153 1546ft 0kts
08-Feb-20 12:24 33.403815 -118.415354 153 1546ft 0kts

Navigation Log

Ident Type
Flight plan parsing failed, navigation log unavailable